createdAt,value
2019-05-05T00:05:19.749Z,25.47
2019-05-05T00:10:26.064Z,25.80
2019-05-05T00:15:46.152Z,26.83
2019-05-05T00:20:47.808Z,26.43
2019-05-05T00:25:50.717Z,27.40
2019-05-05T00:30:52.382Z,25.80
2019-05-05T00:35:54.681Z,26.93
2019-05-05T00:40:56.178Z,26.60
2019-05-05T00:46:02.144Z,26.80
2019-05-05T00:51:04.674Z,26.60
2019-05-05T00:56:06.882Z,27.60
2019-05-05T01:01:10.728Z,26.40
2019-05-05T01:06:15.077Z,27.17
2019-05-05T01:11:18.202Z,26.80
2019-05-05T01:16:20.617Z,27.03
2019-05-05T01:21:24.495Z,27.73
2019-05-05T01:26:26.661Z,27.00
2019-05-05T01:31:30.486Z,27.70
2019-05-05T01:36:34.569Z,28.70
2019-05-05T01:41:40.077Z,27.70
2019-05-05T01:46:41.945Z,28.40
2019-05-05T01:51:44.748Z,28.10
2019-05-05T01:56:47.674Z,27.53
2019-05-05T02:01:50.203Z,27.30
2019-05-05T02:06:54.761Z,28.20
2019-05-05T02:11:56.274Z,29.13
2019-05-05T02:16:58.735Z,27.13
2019-05-05T02:22:00.360Z,29.23
2019-05-05T02:27:02.234Z,28.43
2019-05-05T02:32:25.713Z,27.80
2019-05-05T02:37:28.022Z,27.50
2019-05-05T02:42:29.824Z,27.80
2019-05-05T02:47:48.516Z,28.80
2019-05-05T02:52:50.891Z,28.37
2019-05-05T02:57:54.396Z,27.30
2019-05-05T03:02:59.180Z,28.07
2019-05-05T03:08:00.986Z,27.87
2019-05-05T03:13:04.899Z,28.20
2019-05-05T03:18:07.256Z,27.70
2019-05-05T03:23:08.684Z,28.83
2019-05-05T03:28:10.353Z,29.73
2019-05-05T03:33:11.792Z,28.47
2019-05-05T03:38:14.462Z,28.90
2019-05-05T03:43:18.312Z,27.10
2019-05-05T03:48:20.717Z,28.67
2019-05-05T03:53:24.439Z,27.87
2019-05-05T03:58:26.652Z,27.23
2019-05-05T04:03:28.163Z,26.67
2019-05-05T04:08:29.933Z,26.63
2019-05-05T04:13:31.879Z,27.00
2019-05-05T04:18:36.123Z,26.80
2019-05-05T04:23:37.977Z,26.60
2019-05-05T04:28:40.391Z,26.90
2019-05-05T04:33:42.031Z,26.97
2019-05-05T04:38:44.094Z,25.70
2019-05-05T04:43:45.754Z,25.57
2019-05-05T04:48:59.765Z,25.60
2019-05-05T04:54:06.013Z,25.00
2019-05-05T04:59:08.020Z,24.60
2019-05-05T05:04:17.798Z,26.43
2019-05-05T05:09:19.850Z,25.53
2019-05-05T05:14:21.773Z,23.90
2019-05-05T05:19:24.270Z,25.00
2019-05-05T05:24:26.451Z,25.00
2019-05-05T05:29:28.558Z,24.80
2019-05-05T05:34:30.758Z,28.57
2019-05-05T05:39:34.512Z,28.90
2019-05-05T05:44:53.511Z,28.20
2019-05-05T05:50:04.115Z,32.67
2019-05-05T05:55:06.119Z,37.63
2019-05-05T06:00:10.340Z,33.23
2019-05-05T06:05:14.773Z,30.53
2019-05-05T06:10:24.298Z,31.63
2019-05-05T06:15:20.740Z,25.50
2019-05-05T06:20:26.034Z,24.63
2019-05-05T06:25:27.602Z,22.80
2019-05-05T06:30:29.208Z,22.10
2019-05-05T06:35:30.793Z,21.07
2019-05-05T06:40:40.894Z,21.77
2019-05-05T06:45:53.430Z,19.40
2019-05-05T06:50:55.459Z,22.07
2019-05-05T06:55:57.000Z,20.70
2019-05-05T07:00:59.300Z,19.33
2019-05-05T07:06:00.736Z,21.33
2019-05-05T07:11:04.114Z,20.67
2019-05-05T07:16:06.281Z,22.20
2019-05-05T07:21:07.819Z,21.50
2019-05-05T07:26:09.674Z,22.80
2019-05-05T07:31:14.302Z,22.90
2019-05-05T07:36:30.348Z,25.33
2019-05-05T07:41:34.051Z,26.10
2019-05-05T07:46:35.749Z,22.50
2019-05-05T07:51:37.319Z,24.10
2019-05-05T07:56:39.402Z,24.47
2019-05-05T08:01:46.796Z,24.90
2019-05-05T08:06:50.430Z,28.10
2019-05-05T08:11:54.185Z,30.67
2019-05-05T08:17:00.437Z,30.70
2019-05-05T08:22:03.697Z,28.83
2019-05-05T08:27:10.304Z,30.00
2019-05-05T08:32:27.012Z,32.10
2019-05-05T08:37:28.721Z,32.83
2019-05-05T08:42:30.308Z,34.43
2019-05-05T08:47:31.896Z,35.23
2019-05-05T08:52:34.433Z,35.10
2019-05-05T08:57:36.004Z,33.10
2019-05-05T09:02:38.547Z,35.30
2019-05-05T09:07:40.001Z,36.17
2019-05-05T09:12:44.540Z,35.67
2019-05-05T09:17:46.446Z,36.20
2019-05-05T09:22:48.064Z,37.30
2019-05-05T09:27:53.569Z,37.30
2019-05-05T09:32:55.574Z,37.10
2019-05-05T09:38:08.653Z,36.47
2019-05-05T09:43:14.769Z,38.07
2019-05-05T09:48:16.769Z,37.43
2019-05-05T09:53:23.800Z,38.70
2019-05-05T09:58:34.729Z,37.33
2019-05-05T10:03:37.750Z,36.83
2019-05-05T10:08:39.605Z,38.60
2019-05-05T10:13:41.162Z,38.03
2019-05-05T10:18:44.852Z,38.20
2019-05-05T10:23:48.352Z,38.17
2019-05-05T10:28:50.463Z,37.13
2019-05-05T10:33:56.922Z,38.27
2019-05-05T10:39:00.750Z,39.43
2019-05-05T10:44:03.700Z,36.93
2019-05-05T10:49:05.765Z,38.33
2019-05-05T10:54:07.445Z,38.33
2019-05-05T10:59:09.089Z,39.50
2019-05-05T11:04:13.603Z,38.80
2019-05-05T11:09:15.739Z,37.53
2019-05-05T11:14:17.786Z,38.70
2019-05-05T11:19:19.763Z,38.23
2019-05-05T11:24:21.402Z,39.27
2019-05-05T11:29:24.096Z,39.27
2019-05-05T11:34:28.120Z,40.10
2019-05-05T11:39:30.073Z,39.37
2019-05-05T11:44:33.521Z,38.80
2019-05-05T11:49:36.231Z,39.17
2019-05-05T11:54:37.802Z,39.63
2019-05-05T11:59:39.401Z,38.80
2019-05-05T12:04:40.974Z,38.00
2019-05-05T12:09:44.807Z,39.60
2019-05-05T12:14:49.296Z,40.33
2019-05-05T12:19:56.236Z,40.30
2019-05-05T12:24:58.221Z,40.20
2019-05-05T12:30:01.234Z,39.77
2019-05-05T12:35:04.293Z,40.03
2019-05-05T12:40:09.366Z,40.40
2019-05-05T12:45:13.809Z,39.73
2019-05-05T12:50:15.690Z,40.43
2019-05-05T12:55:17.551Z,41.17
2019-05-05T13:00:20.411Z,40.60
2019-05-05T13:05:23.698Z,40.20
2019-05-05T13:10:25.616Z,40.17
2019-05-05T13:15:27.566Z,40.13
2019-05-05T13:20:47.272Z,40.97
2019-05-05T13:25:58.905Z,40.30
2019-05-05T13:30:57.789Z,40.03
2019-05-05T13:36:00.887Z,40.80
2019-05-05T13:41:03.808Z,39.43
2019-05-05T13:46:14.075Z,40.60
2019-05-05T13:51:17.973Z,40.30
2019-05-05T13:56:19.704Z,40.80
2019-05-05T14:01:23.550Z,39.47
2019-05-05T14:06:25.250Z,38.73
2019-05-05T14:11:27.026Z,39.27
2019-05-05T14:16:29.060Z,38.97
2019-05-05T14:21:38.703Z,39.00
2019-05-05T14:26:43.862Z,40.37
2019-05-05T14:31:46.752Z,39.10
2019-05-05T14:36:50.564Z,39.60
2019-05-05T14:41:53.941Z,40.07
2019-05-05T14:46:56.199Z,39.67
2019-05-05T14:52:00.467Z,39.57
2019-05-05T14:57:04.390Z,39.27
2019-05-05T15:02:10.159Z,38.23
2019-05-05T15:07:33.954Z,38.03
2019-05-05T15:12:44.619Z,37.90
2019-05-05T15:17:47.497Z,38.57
2019-05-05T15:22:49.965Z,37.43
2019-05-05T15:27:54.377Z,37.33
2019-05-05T15:32:56.516Z,37.70
2019-05-05T15:38:00.767Z,36.60
2019-05-05T15:43:03.813Z,37.50
2019-05-05T15:48:07.960Z,37.13
2019-05-05T15:53:09.816Z,37.20
2019-05-05T15:58:14.033Z,36.70
2019-05-05T16:03:17.423Z,36.33
2019-05-05T16:08:21.282Z,35.40
2019-05-05T16:13:23.818Z,35.90
2019-05-05T16:18:30.493Z,35.43
2019-05-05T16:23:50.865Z,35.77
2019-05-05T16:28:56.359Z,36.60
2019-05-05T16:34:01.280Z,36.20
2019-05-05T16:39:05.408Z,36.17
2019-05-05T16:44:08.841Z,35.90
2019-05-05T16:49:11.240Z,36.30
2019-05-05T16:54:24.301Z,36.10
2019-05-05T16:59:27.071Z,36.00
2019-05-05T17:04:28.884Z,35.97
2019-05-05T17:09:30.873Z,36.30
2019-05-05T17:14:34.666Z,36.17
2019-05-05T17:19:38.713Z,36.07
2019-05-05T17:24:40.567Z,35.30
2019-05-05T17:29:43.993Z,36.37
2019-05-05T17:34:45.944Z,36.23
2019-05-05T17:39:49.586Z,36.00
2019-05-05T17:45:03.716Z,37.10
2019-05-05T17:50:14.443Z,36.40
2019-05-05T17:55:20.137Z,36.30
2019-05-05T18:00:24.321Z,35.83
2019-05-05T18:05:45.963Z,36.73
2019-05-05T18:10:49.693Z,36.33
2019-05-05T18:15:54.357Z,35.83
2019-05-05T18:20:56.899Z,35.73
2019-05-05T18:25:59.190Z,34.17
2019-05-05T18:31:01.559Z,33.20
2019-05-05T18:36:04.422Z,32.10
2019-05-05T18:41:11.560Z,31.93
2019-05-05T18:46:24.430Z,30.40
2019-05-05T18:51:30.658Z,29.20
2019-05-05T18:56:34.607Z,24.23
2019-05-05T19:01:41.084Z,24.37
2019-05-05T19:06:47.599Z,25.57
2019-05-05T19:11:49.892Z,26.37
2019-05-05T19:16:58.225Z,25.13
2019-05-05T19:22:04.243Z,26.23
2019-05-05T19:27:06.068Z,26.40
2019-05-05T19:32:08.237Z,33.60
2019-05-05T19:37:10.288Z,25.67
2019-05-05T19:42:14.311Z,25.17
2019-05-05T19:47:20.237Z,24.30
2019-05-05T19:52:24.029Z,28.63
2019-05-05T19:57:25.955Z,26.70
2019-05-05T20:02:27.771Z,23.00
2019-05-05T20:07:30.062Z,23.80
2019-05-05T20:12:33.540Z,21.10
2019-05-05T20:17:37.191Z,20.20
2019-05-05T20:22:39.376Z,18.13
2019-05-05T20:27:40.947Z,21.33
2019-05-05T20:32:44.337Z,19.20
2019-05-05T20:37:51.070Z,18.93
2019-05-05T20:42:54.314Z,18.60
2019-05-05T20:47:56.282Z,19.07
2019-05-05T20:52:58.609Z,18.27
2019-05-05T20:58:00.274Z,17.27
2019-05-05T21:03:04.539Z,18.00
2019-05-05T21:08:06.071Z,17.83
2019-05-05T21:13:07.698Z,18.57
2019-05-05T21:18:09.679Z,17.70
2019-05-05T21:23:14.392Z,17.00
2019-05-05T21:28:16.735Z,19.97
2019-05-05T21:33:18.544Z,17.67
2019-05-05T21:38:20.550Z,17.47
2019-05-05T21:43:24.814Z,17.77
2019-05-05T21:48:26.449Z,17.67
2019-05-05T21:53:45.299Z,15.97
2019-05-05T21:58:47.776Z,16.83
2019-05-05T22:03:49.399Z,15.87
2019-05-05T22:08:53.293Z,15.10
2019-05-05T22:13:55.311Z,16.13
2019-05-05T22:18:56.910Z,16.17
2019-05-05T22:24:18.269Z,18.10
2019-05-05T22:29:19.898Z,15.90
2019-05-05T22:34:21.428Z,16.80
2019-05-05T22:39:24.332Z,16.40
2019-05-05T22:44:28.660Z,17.20
2019-05-05T22:49:30.109Z,16.37
2019-05-05T22:54:33.605Z,17.33
2019-05-05T22:59:35.384Z,16.33
2019-05-05T23:04:39.041Z,17.13
2019-05-05T23:09:40.912Z,17.00
2019-05-05T23:14:43.696Z,15.40
2019-05-05T23:20:04.840Z,17.00
2019-05-05T23:25:14.531Z,17.27
2019-05-05T23:30:20.705Z,16.83
2019-05-05T23:35:23.953Z,15.47
2019-05-05T23:40:30.585Z,15.27
2019-05-05T23:45:37.402Z,15.70
2019-05-05T23:50:40.881Z,14.80
2019-05-05T23:55:44.069Z,16.47
